sensor_id;sensor_type;location;lat;lon;timestamp;P1;durP1;ratioP1;P2;durP2;ratioP2
11943;SDS011;6031;50.220;10.122;2023-05-07T00:00:18;2.23;;;2.13;;
11943;SDS011;6031;50.220;10.122;2023-05-07T00:02:44;3.30;;;2.20;;
11943;SDS011;6031;50.220;10.122;2023-05-07T00:05:11;3.63;;;2.00;;
11943;SDS011;6031;50.220;10.122;2023-05-07T00:07:36;2.23;;;2.13;;
11943;SDS011;6031;50.220;10.122;2023-05-07T00:10:02;2.20;;;2.10;;
11943;SDS011;6031;50.220;10.122;2023-05-07T00:12:28;1.70;;;1.60;;
11943;SDS011;6031;50.220;10.122;2023-05-07T00:14:56;2.03;;;1.93;;
11943;SDS011;6031;50.220;10.122;2023-05-07T00:17:22;2.53;;;2.33;;
11943;SDS011;6031;50.220;10.122;2023-05-07T00:19:48;3.10;;;2.80;;
11943;SDS011;6031;50.220;10.122;2023-05-07T00:22:13;3.37;;;2.60;;
11943;SDS011;6031;50.220;10.122;2023-05-07T00:24:39;2.60;;;2.40;;
11943;SDS011;6031;50.220;10.122;2023-05-07T00:27:04;2.33;;;2.23;;
11943;SDS011;6031;50.220;10.122;2023-05-07T00:29:30;2.70;;;2.50;;
11943;SDS011;6031;50.220;10.122;2023-05-07T00:31:55;4.03;;;2.63;;
11943;SDS011;6031;50.220;10.122;2023-05-07T00:34:21;2.57;;;2.30;;
11943;SDS011;6031;50.220;10.122;2023-05-07T00:36:47;2.70;;;2.50;;
11943;SDS011;6031;50.220;10.122;2023-05-07T00:39:12;4.37;;;2.57;;
11943;SDS011;6031;50.220;10.122;2023-05-07T00:41:38;2.40;;;2.20;;
11943;SDS011;6031;50.220;10.122;2023-05-07T00:44:04;5.23;;;2.50;;
11943;SDS011;6031;50.220;10.122;2023-05-07T00:46:29;2.93;;;2.73;;
11943;SDS011;6031;50.220;10.122;2023-05-07T00:48:55;2.70;;;2.50;;
11943;SDS011;6031;50.220;10.122;2023-05-07T00:51:23;2.27;;;2.17;;
11943;SDS011;6031;50.220;10.122;2023-05-07T00:53:50;3.10;;;2.40;;
11943;SDS011;6031;50.220;10.122;2023-05-07T00:56:15;4.33;;;2.70;;
11943;SDS011;6031;50.220;10.122;2023-05-07T00:58:41;2.60;;;2.40;;
11943;SDS011;6031;50.220;10.122;2023-05-07T01:01:07;3.33;;;3.10;;
11943;SDS011;6031;50.220;10.122;2023-05-07T01:03:32;3.87;;;3.50;;
11943;SDS011;6031;50.220;10.122;2023-05-07T01:05:58;3.67;;;2.27;;
11943;SDS011;6031;50.220;10.122;2023-05-07T01:08:25;3.43;;;3.13;;
11943;SDS011;6031;50.220;10.122;2023-05-07T01:10:53;4.80;;;3.50;;
11943;SDS011;6031;50.220;10.122;2023-05-07T01:13:19;3.47;;;3.23;;
11943;SDS011;6031;50.220;10.122;2023-05-07T01:15:45;3.93;;;3.63;;
11943;SDS011;6031;50.220;10.122;2023-05-07T01:18:11;4.13;;;3.00;;
11943;SDS011;6031;50.220;10.122;2023-05-07T01:20:38;4.43;;;4.13;;
11943;SDS011;6031;50.220;10.122;2023-05-07T01:23:04;4.70;;;4.30;;
11943;SDS011;6031;50.220;10.122;2023-05-07T01:25:31;4.30;;;3.90;;
11943;SDS011;6031;50.220;10.122;2023-05-07T01:27:57;4.60;;;4.20;;
11943;SDS011;6031;50.220;10.122;2023-05-07T01:30:25;4.87;;;4.37;;
11943;SDS011;6031;50.220;10.122;2023-05-07T01:32:51;5.20;;;4.80;;
11943;SDS011;6031;50.220;10.122;2023-05-07T01:35:30;6.67;;;5.27;;
11943;SDS011;6031;50.220;10.122;2023-05-07T01:38:00;5.33;;;4.93;;
11943;SDS011;6031;50.220;10.122;2023-05-07T01:40:29;5.00;;;4.53;;
11943;SDS011;6031;50.220;10.122;2023-05-07T01:42:55;3.63;;;3.33;;
11943;SDS011;6031;50.220;10.122;2023-05-07T01:45:21;3.90;;;3.57;;
11943;SDS011;6031;50.220;10.122;2023-05-07T01:47:47;4.30;;;3.83;;
11943;SDS011;6031;50.220;10.122;2023-05-07T01:50:14;3.70;;;3.37;;
11943;SDS011;6031;50.220;10.122;2023-05-07T01:52:42;5.57;;;5.00;;
11943;SDS011;6031;50.220;10.122;2023-05-07T01:55:08;5.20;;;4.70;;
11943;SDS011;6031;50.220;10.122;2023-05-07T01:57:34;5.67;;;4.53;;
11943;SDS011;6031;50.220;10.122;2023-05-07T01:59:59;3.90;;;3.60;;
11943;SDS011;6031;50.220;10.122;2023-05-07T02:02:25;5.40;;;4.87;;
11943;SDS011;6031;50.220;10.122;2023-05-07T02:04:50;4.87;;;4.47;;
11943;SDS011;6031;50.220;10.122;2023-05-07T02:07:16;6.47;;;4.67;;
11943;SDS011;6031;50.220;10.122;2023-05-07T02:09:41;6.10;;;5.50;;
11943;SDS011;6031;50.220;10.122;2023-05-07T02:12:07;4.67;;;4.27;;
11943;SDS011;6031;50.220;10.122;2023-05-07T02:14:32;6.73;;;5.40;;
11943;SDS011;6031;50.220;10.122;2023-05-07T02:16:58;6.83;;;6.13;;
11943;SDS011;6031;50.220;10.122;2023-05-07T02:19:23;5.33;;;4.93;;
11943;SDS011;6031;50.220;10.122;2023-05-07T02:21:49;6.60;;;6.00;;
11943;SDS011;6031;50.220;10.122;2023-05-07T02:24:15;7.17;;;6.50;;
11943;SDS011;6031;50.220;10.122;2023-05-07T02:26:40;6.83;;;6.20;;
11943;SDS011;6031;50.220;10.122;2023-05-07T02:29:06;9.37;;;7.30;;
11943;SDS011;6031;50.220;10.122;2023-05-07T02:31:32;7.57;;;5.87;;
11943;SDS011;6031;50.220;10.122;2023-05-07T02:33:58;8.03;;;6.70;;
11943;SDS011;6031;50.220;10.122;2023-05-07T02:36:24;7.10;;;6.40;;
11943;SDS011;6031;50.220;10.122;2023-05-07T02:38:51;7.10;;;6.40;;
11943;SDS011;6031;50.220;10.122;2023-05-07T02:41:17;7.50;;;6.80;;
11943;SDS011;6031;50.220;10.122;2023-05-07T02:43:42;7.67;;;6.07;;
11943;SDS011;6031;50.220;10.122;2023-05-07T02:46:08;7.93;;;6.50;;
11943;SDS011;6031;50.220;10.122;2023-05-07T02:48:34;6.20;;;5.70;;
11943;SDS011;6031;50.220;10.122;2023-05-07T02:51:00;7.07;;;6.37;;
11943;SDS011;6031;50.220;10.122;2023-05-07T02:53:26;6.87;;;6.17;;
11943;SDS011;6031;50.220;10.122;2023-05-07T02:55:52;6.83;;;6.20;;
11943;SDS011;6031;50.220;10.122;2023-05-07T02:58:18;7.43;;;6.73;;
11943;SDS011;6031;50.220;10.122;2023-05-07T03:00:44;7.17;;;6.37;;
11943;SDS011;6031;50.220;10.122;2023-05-07T03:03:10;8.10;;;6.93;;
11943;SDS011;6031;50.220;10.122;2023-05-07T03:05:35;7.73;;;7.03;;
11943;SDS011;6031;50.220;10.122;2023-05-07T03:08:01;9.67;;;6.97;;
11943;SDS011;6031;50.220;10.122;2023-05-07T03:10:27;8.63;;;7.83;;
11943;SDS011;6031;50.220;10.122;2023-05-07T03:12:53;8.77;;;7.87;;
11943;SDS011;6031;50.220;10.122;2023-05-07T03:15:18;8.53;;;7.63;;
11943;SDS011;6031;50.220;10.122;2023-05-07T03:17:44;8.70;;;7.77;;
11943;SDS011;6031;50.220;10.122;2023-05-07T03:20:09;8.33;;;5.73;;
11943;SDS011;6031;50.220;10.122;2023-05-07T03:22:35;8.90;;;7.97;;
11943;SDS011;6031;50.220;10.122;2023-05-07T03:25:01;6.93;;;6.27;;
11943;SDS011;6031;50.220;10.122;2023-05-07T03:27:27;10.60;;;7.73;;
11943;SDS011;6031;50.220;10.122;2023-05-07T03:29:52;9.73;;;7.87;;
11943;SDS011;6031;50.220;10.122;2023-05-07T03:32:18;10.23;;;8.47;;
11943;SDS011;6031;50.220;10.122;2023-05-07T03:34:43;9.17;;;8.27;;
11943;SDS011;6031;50.220;10.122;2023-05-07T03:37:09;9.37;;;8.47;;
11943;SDS011;6031;50.220;10.122;2023-05-07T03:39:34;9.00;;;8.10;;
11943;SDS011;6031;50.220;10.122;2023-05-07T03:42:00;7.97;;;6.63;;
11943;SDS011;6031;50.220;10.122;2023-05-07T03:44:26;10.27;;;9.17;;
11943;SDS011;6031;50.220;10.122;2023-05-07T03:46:51;9.60;;;8.60;;
11943;SDS011;6031;50.220;10.122;2023-05-07T03:49:16;9.50;;;8.50;;
11943;SDS011;6031;50.220;10.122;2023-05-07T03:51:42;9.63;;;8.60;;
11943;SDS011;6031;50.220;10.122;2023-05-07T03:54:08;9.93;;;8.73;;
11943;SDS011;6031;50.220;10.122;2023-05-07T03:56:33;9.87;;;8.33;;
11943;SDS011;6031;50.220;10.122;2023-05-07T03:58:59;8.70;;;7.00;;
11943;SDS011;6031;50.220;10.122;2023-05-07T04:01:25;9.13;;;8.20;;
11943;SDS011;6031;50.220;10.122;2023-05-07T04:03:51;9.90;;;8.70;;
11943;SDS011;6031;50.220;10.122;2023-05-07T04:06:16;12.17;;;9.17;;
11943;SDS011;6031;50.220;10.122;2023-05-07T04:08:42;10.33;;;8.80;;
11943;SDS011;6031;50.220;10.122;2023-05-07T04:11:08;11.17;;;9.00;;
11943;SDS011;6031;50.220;10.122;2023-05-07T04:13:33;9.87;;;8.57;;
11943;SDS011;6031;50.220;10.122;2023-05-07T04:16:00;10.87;;;7.70;;
11943;SDS011;6031;50.220;10.122;2023-05-07T04:18:27;9.67;;;8.67;;
11943;SDS011;6031;50.220;10.122;2023-05-07T04:20:52;11.20;;;8.80;;
11943;SDS011;6031;50.220;10.122;2023-05-07T04:23:18;9.33;;;7.10;;
11943;SDS011;6031;50.220;10.122;2023-05-07T04:25:44;11.83;;;8.97;;
11943;SDS011;6031;50.220;10.122;2023-05-07T04:28:10;10.07;;;8.60;;
11943;SDS011;6031;50.220;10.122;2023-05-07T04:30:36;8.27;;;6.43;;
11943;SDS011;6031;50.220;10.122;2023-05-07T04:33:02;10.60;;;8.60;;
11943;SDS011;6031;50.220;10.122;2023-05-07T04:35:27;8.37;;;6.60;;
11943;SDS011;6031;50.220;10.122;2023-05-07T04:37:53;9.13;;;8.20;;
11943;SDS011;6031;50.220;10.122;2023-05-07T04:40:18;9.70;;;8.27;;
11943;SDS011;6031;50.220;10.122;2023-05-07T04:42:44;11.13;;;7.83;;
11943;SDS011;6031;50.220;10.122;2023-05-07T04:45:09;9.67;;;8.73;;
11943;SDS011;6031;50.220;10.122;2023-05-07T04:47:35;9.23;;;7.97;;
11943;SDS011;6031;50.220;10.122;2023-05-07T04:50:01;9.13;;;7.93;;
11943;SDS011;6031;50.220;10.122;2023-05-07T04:52:27;10.77;;;8.20;;
11943;SDS011;6031;50.220;10.122;2023-05-07T04:54:52;9.20;;;8.30;;
11943;SDS011;6031;50.220;10.122;2023-05-07T04:57:18;9.27;;;8.17;;
11943;SDS011;6031;50.220;10.122;2023-05-07T04:59:44;8.97;;;8.07;;
11943;SDS011;6031;50.220;10.122;2023-05-07T05:02:10;9.77;;;8.43;;
11943;SDS011;6031;50.220;10.122;2023-05-07T05:04:35;10.20;;;7.57;;
11943;SDS011;6031;50.220;10.122;2023-05-07T05:07:01;8.63;;;7.83;;
11943;SDS011;6031;50.220;10.122;2023-05-07T05:09:28;10.57;;;8.37;;
11943;SDS011;6031;50.220;10.122;2023-05-07T05:11:54;7.60;;;6.80;;
11943;SDS011;6031;50.220;10.122;2023-05-07T05:14:19;8.50;;;7.63;;
11943;SDS011;6031;50.220;10.122;2023-05-07T05:16:45;9.03;;;7.83;;
11943;SDS011;6031;50.220;10.122;2023-05-07T05:19:10;6.27;;;5.67;;
11943;SDS011;6031;50.220;10.122;2023-05-07T05:21:36;8.80;;;8.00;;
11943;SDS011;6031;50.220;10.122;2023-05-07T05:24:01;9.17;;;7.77;;
11943;SDS011;6031;50.220;10.122;2023-05-07T05:26:27;7.83;;;7.13;;
11943;SDS011;6031;50.220;10.122;2023-05-07T05:28:52;7.53;;;6.60;;
11943;SDS011;6031;50.220;10.122;2023-05-07T05:31:18;9.80;;;8.50;;
11943;SDS011;6031;50.220;10.122;2023-05-07T05:33:43;9.13;;;7.40;;
11943;SDS011;6031;50.220;10.122;2023-05-07T05:36:09;9.23;;;7.10;;
11943;SDS011;6031;50.220;10.122;2023-05-07T05:38:35;8.67;;;7.00;;
11943;SDS011;6031;50.220;10.122;2023-05-07T05:41:01;6.70;;;5.93;;
11943;SDS011;6031;50.220;10.122;2023-05-07T05:43:27;6.10;;;5.50;;
11943;SDS011;6031;50.220;10.122;2023-05-07T05:45:52;7.70;;;6.90;;
11943;SDS011;6031;50.220;10.122;2023-05-07T05:48:18;6.20;;;5.57;;
11943;SDS011;6031;50.220;10.122;2023-05-07T05:50:43;8.20;;;7.13;;
11943;SDS011;6031;50.220;10.122;2023-05-07T05:53:08;8.57;;;7.73;;
11943;SDS011;6031;50.220;10.122;2023-05-07T05:55:34;9.43;;;8.00;;
11943;SDS011;6031;50.220;10.122;2023-05-07T05:58:00;9.03;;;7.63;;
11943;SDS011;6031;50.220;10.122;2023-05-07T06:00:26;10.40;;;8.37;;
11943;SDS011;6031;50.220;10.122;2023-05-07T06:02:52;9.63;;;7.73;;
11943;SDS011;6031;50.220;10.122;2023-05-07T06:05:17;10.17;;;7.80;;
11943;SDS011;6031;50.220;10.122;2023-05-07T06:07:43;10.37;;;8.20;;
11943;SDS011;6031;50.220;10.122;2023-05-07T06:10:08;9.10;;;8.17;;
11943;SDS011;6031;50.220;10.122;2023-05-07T06:12:34;9.97;;;8.17;;
11943;SDS011;6031;50.220;10.122;2023-05-07T06:15:00;10.13;;;8.13;;
11943;SDS011;6031;50.220;10.122;2023-05-07T06:17:26;9.10;;;8.03;;
11943;SDS011;6031;50.220;10.122;2023-05-07T06:19:52;8.33;;;7.53;;
11943;SDS011;6031;50.220;10.122;2023-05-07T06:22:17;7.87;;;7.03;;
11943;SDS011;6031;50.220;10.122;2023-05-07T06:24:43;8.83;;;7.30;;
11943;SDS011;6031;50.220;10.122;2023-05-07T06:27:08;8.27;;;7.47;;
11943;SDS011;6031;50.220;10.122;2023-05-07T06:29:34;7.53;;;6.07;;
11943;SDS011;6031;50.220;10.122;2023-05-07T06:32:09;9.17;;;7.93;;
11943;SDS011;6031;50.220;10.122;2023-05-07T06:34:35;7.63;;;6.93;;
11943;SDS011;6031;50.220;10.122;2023-05-07T06:37:01;7.77;;;6.40;;
11943;SDS011;6031;50.220;10.122;2023-05-07T06:39:26;8.23;;;6.70;;
11943;SDS011;6031;50.220;10.122;2023-05-07T06:41:52;7.60;;;6.50;;
11943;SDS011;6031;50.220;10.122;2023-05-07T06:44:18;8.03;;;6.67;;
11943;SDS011;6031;50.220;10.122;2023-05-07T06:46:43;8.47;;;5.70;;
11943;SDS011;6031;50.220;10.122;2023-05-07T06:49:10;7.77;;;6.97;;
11943;SDS011;6031;50.220;10.122;2023-05-07T06:51:35;7.87;;;7.07;;
11943;SDS011;6031;50.220;10.122;2023-05-07T06:54:01;7.53;;;6.60;;
11943;SDS011;6031;50.220;10.122;2023-05-07T06:56:26;7.07;;;6.37;;
11943;SDS011;6031;50.220;10.122;2023-05-07T06:58:52;8.17;;;6.83;;
11943;SDS011;6031;50.220;10.122;2023-05-07T07:01:17;7.73;;;6.97;;
11943;SDS011;6031;50.220;10.122;2023-05-07T07:03:43;7.97;;;7.17;;
11943;SDS011;6031;50.220;10.122;2023-05-07T07:06:08;6.97;;;6.37;;
11943;SDS011;6031;50.220;10.122;2023-05-07T07:08:34;7.37;;;6.77;;
11943;SDS011;6031;50.220;10.122;2023-05-07T07:10:59;8.40;;;6.37;;
11943;SDS011;6031;50.220;10.122;2023-05-07T07:13:25;9.43;;;6.80;;
11943;SDS011;6031;50.220;10.122;2023-05-07T07:15:51;8.03;;;7.07;;
11943;SDS011;6031;50.220;10.122;2023-05-07T07:18:18;7.23;;;6.27;;
11943;SDS011;6031;50.220;10.122;2023-05-07T07:20:43;10.10;;;7.00;;
11943;SDS011;6031;50.220;10.122;2023-05-07T07:23:09;7.10;;;6.40;;
11943;SDS011;6031;50.220;10.122;2023-05-07T07:25:35;6.80;;;6.07;;
11943;SDS011;6031;50.220;10.122;2023-05-07T07:28:00;10.63;;;6.03;;
11943;SDS011;6031;50.220;10.122;2023-05-07T07:30:26;6.40;;;5.70;;
11943;SDS011;6031;50.220;10.122;2023-05-07T07:32:51;6.93;;;6.23;;
11943;SDS011;6031;50.220;10.122;2023-05-07T07:35:17;4.80;;;4.37;;
11943;SDS011;6031;50.220;10.122;2023-05-07T07:37:43;6.63;;;6.03;;
11943;SDS011;6031;50.220;10.122;2023-05-07T07:40:08;7.30;;;6.07;;
11943;SDS011;6031;50.220;10.122;2023-05-07T07:42:34;8.53;;;6.30;;
11943;SDS011;6031;50.220;10.122;2023-05-07T07:45:00;4.77;;;4.00;;
11943;SDS011;6031;50.220;10.122;2023-05-07T07:47:26;6.33;;;5.73;;
11943;SDS011;6031;50.220;10.122;2023-05-07T07:49:51;8.97;;;5.77;;
11943;SDS011;6031;50.220;10.122;2023-05-07T07:52:17;6.17;;;5.50;;
11943;SDS011;6031;50.220;10.122;2023-05-07T07:54:44;6.43;;;5.83;;
11943;SDS011;6031;50.220;10.122;2023-05-07T07:57:09;7.57;;;6.47;;
11943;SDS011;6031;50.220;10.122;2023-05-07T07:59:35;6.50;;;5.80;;
11943;SDS011;6031;50.220;10.122;2023-05-07T08:02:00;8.63;;;6.27;;
11943;SDS011;6031;50.220;10.122;2023-05-07T08:04:26;9.07;;;6.20;;
11943;SDS011;6031;50.220;10.122;2023-05-07T08:06:51;6.67;;;5.97;;
11943;SDS011;6031;50.220;10.122;2023-05-07T08:09:19;6.40;;;5.63;;
11943;SDS011;6031;50.220;10.122;2023-05-07T08:11:44;7.90;;;5.83;;
11943;SDS011;6031;50.220;10.122;2023-05-07T08:14:10;7.67;;;6.47;;
11943;SDS011;6031;50.220;10.122;2023-05-07T08:16:36;9.90;;;6.13;;
11943;SDS011;6031;50.220;10.122;2023-05-07T08:19:02;6.70;;;5.33;;
11943;SDS011;6031;50.220;10.122;2023-05-07T08:21:28;7.03;;;6.33;;
11943;SDS011;6031;50.220;10.122;2023-05-07T08:23:53;10.63;;;5.97;;
11943;SDS011;6031;50.220;10.122;2023-05-07T08:26:19;6.40;;;5.80;;
11943;SDS011;6031;50.220;10.122;2023-05-07T08:28:45;6.10;;;5.60;;
11943;SDS011;6031;50.220;10.122;2023-05-07T08:31:10;7.27;;;6.57;;
11943;SDS011;6031;50.220;10.122;2023-05-07T08:33:36;6.90;;;6.20;;
11943;SDS011;6031;50.220;10.122;2023-05-07T08:36:03;8.83;;;5.73;;
11943;SDS011;6031;50.220;10.122;2023-05-07T08:38:29;6.43;;;5.83;;
11943;SDS011;6031;50.220;10.122;2023-05-07T08:40:56;5.97;;;5.30;;
11943;SDS011;6031;50.220;10.122;2023-05-07T08:43:21;5.77;;;5.27;;
11943;SDS011;6031;50.220;10.122;2023-05-07T08:45:52;5.83;;;5.33;;
11943;SDS011;6031;50.220;10.122;2023-05-07T08:48:20;6.73;;;5.60;;
11943;SDS011;6031;50.220;10.122;2023-05-07T08:50:50;6.43;;;5.83;;
11943;SDS011;6031;50.220;10.122;2023-05-07T08:53:16;6.63;;;5.70;;
11943;SDS011;6031;50.220;10.122;2023-05-07T08:55:42;5.90;;;5.30;;
11943;SDS011;6031;50.220;10.122;2023-05-07T08:58:08;5.77;;;5.20;;
11943;SDS011;6031;50.220;10.122;2023-05-07T09:00:34;6.30;;;5.70;;
11943;SDS011;6031;50.220;10.122;2023-05-07T09:03:02;6.37;;;5.73;;
11943;SDS011;6031;50.220;10.122;2023-05-07T09:05:27;7.97;;;5.80;;
11943;SDS011;6031;50.220;10.122;2023-05-07T09:07:53;5.67;;;5.13;;
11943;SDS011;6031;50.220;10.122;2023-05-07T09:10:20;10.10;;;5.17;;
11943;SDS011;6031;50.220;10.122;2023-05-07T09:12:46;6.83;;;6.13;;
11943;SDS011;6031;50.220;10.122;2023-05-07T09:15:11;5.93;;;5.40;;
11943;SDS011;6031;50.220;10.122;2023-05-07T09:17:37;7.33;;;6.57;;
11943;SDS011;6031;50.220;10.122;2023-05-07T09:20:03;6.23;;;5.63;;
11943;SDS011;6031;50.220;10.122;2023-05-07T09:22:33;7.03;;;6.03;;
11943;SDS011;6031;50.220;10.122;2023-05-07T09:25:00;6.50;;;5.90;;
11943;SDS011;6031;50.220;10.122;2023-05-07T09:27:26;8.60;;;5.70;;
11943;SDS011;6031;50.220;10.122;2023-05-07T09:29:51;6.10;;;5.57;;
11943;SDS011;6031;50.220;10.122;2023-05-07T09:32:17;6.73;;;5.87;;
11943;SDS011;6031;50.220;10.122;2023-05-07T09:34:43;6.20;;;5.57;;
11943;SDS011;6031;50.220;10.122;2023-05-07T09:37:08;6.20;;;5.60;;
11943;SDS011;6031;50.220;10.122;2023-05-07T09:39:43;6.73;;;6.13;;
11943;SDS011;6031;50.220;10.122;2023-05-07T09:42:10;7.07;;;5.60;;
11943;SDS011;6031;50.220;10.122;2023-05-07T09:44:36;6.87;;;6.23;;
11943;SDS011;6031;50.220;10.122;2023-05-07T09:47:04;7.63;;;6.17;;
11943;SDS011;6031;50.220;10.122;2023-05-07T09:49:30;6.60;;;5.90;;
11943;SDS011;6031;50.220;10.122;2023-05-07T09:52:01;6.00;;;5.40;;
11943;SDS011;6031;50.220;10.122;2023-05-07T09:54:27;7.00;;;5.83;;
11943;SDS011;6031;50.220;10.122;2023-05-07T09:56:54;5.93;;;5.33;;
11943;SDS011;6031;50.220;10.122;2023-05-07T09:59:20;6.60;;;5.80;;
11943;SDS011;6031;50.220;10.122;2023-05-07T10:01:47;7.47;;;5.70;;
11943;SDS011;6031;50.220;10.122;2023-05-07T10:04:13;5.57;;;4.90;;
11943;SDS011;6031;50.220;10.122;2023-05-07T10:06:39;4.90;;;4.50;;
11943;SDS011;6031;50.220;10.122;2023-05-07T10:09:06;6.10;;;5.50;;
11943;SDS011;6031;50.220;10.122;2023-05-07T10:11:32;5.37;;;4.87;;
11943;SDS011;6031;50.220;10.122;2023-05-07T10:13:59;5.73;;;5.17;;
11943;SDS011;6031;50.220;10.122;2023-05-07T10:16:27;5.83;;;5.20;;
11943;SDS011;6031;50.220;10.122;2023-05-07T10:19:02;5.33;;;4.60;;
11943;SDS011;6031;50.220;10.122;2023-05-07T10:21:28;5.10;;;4.60;;
11943;SDS011;6031;50.220;10.122;2023-05-07T10:24:01;5.40;;;4.90;;
11943;SDS011;6031;50.220;10.122;2023-05-07T10:26:31;5.20;;;4.70;;
11943;SDS011;6031;50.220;10.122;2023-05-07T10:29:03;5.07;;;4.67;;
11943;SDS011;6031;50.220;10.122;2023-05-07T10:31:49;4.67;;;4.27;;
11943;SDS011;6031;50.220;10.122;2023-05-07T10:34:45;4.63;;;4.23;;
11943;SDS011;6031;50.220;10.122;2023-05-07T10:37:13;5.93;;;4.50;;
11943;SDS011;6031;50.220;10.122;2023-05-07T10:39:39;5.53;;;5.03;;
11943;SDS011;6031;50.220;10.122;2023-05-07T10:42:09;5.33;;;4.53;;
11943;SDS011;6031;50.220;10.122;2023-05-07T10:44:35;5.00;;;4.60;;
11943;SDS011;6031;50.220;10.122;2023-05-07T10:47:08;4.50;;;4.10;;
11943;SDS011;6031;50.220;10.122;2023-05-07T10:49:36;5.70;;;4.07;;
11943;SDS011;6031;50.220;10.122;2023-05-07T10:54:41;4.83;;;4.43;;
11943;SDS011;6031;50.220;10.122;2023-05-07T11:00:02;5.77;;;4.07;;
11943;SDS011;6031;50.220;10.122;2023-05-07T11:05:23;5.10;;;4.70;;
11943;SDS011;6031;50.220;10.122;2023-05-07T11:07:54;5.17;;;4.53;;
11943;SDS011;6031;50.220;10.122;2023-05-07T11:10:20;4.77;;;4.20;;
11943;SDS011;6031;50.220;10.122;2023-05-07T11:12:46;4.20;;;3.90;;
11943;SDS011;6031;50.220;10.122;2023-05-07T11:15:13;4.30;;;3.60;;
11943;SDS011;6031;50.220;10.122;2023-05-07T11:17:54;3.67;;;3.37;;
11943;SDS011;6031;50.220;10.122;2023-05-07T11:20:36;4.67;;;2.67;;
11943;SDS011;6031;50.220;10.122;2023-05-07T11:26:07;3.77;;;3.47;;
11943;SDS011;6031;50.220;10.122;2023-05-07T11:28:37;3.20;;;3.00;;
11943;SDS011;6031;50.220;10.122;2023-05-07T11:31:05;3.20;;;3.00;;
11943;SDS011;6031;50.220;10.122;2023-05-07T11:33:31;5.57;;;3.00;;
11943;SDS011;6031;50.220;10.122;2023-05-07T11:35:57;4.17;;;2.70;;
11943;SDS011;6031;50.220;10.122;2023-05-07T11:38:24;3.10;;;2.80;;
11943;SDS011;6031;50.220;10.122;2023-05-07T11:40:50;2.93;;;2.70;;
11943;SDS011;6031;50.220;10.122;2023-05-07T11:43:25;3.47;;;3.07;;
11943;SDS011;6031;50.220;10.122;2023-05-07T11:45:51;2.50;;;2.40;;
11943;SDS011;6031;50.220;10.122;2023-05-07T11:48:17;3.37;;;3.07;;
11943;SDS011;6031;50.220;10.122;2023-05-07T11:50:52;4.23;;;3.10;;
11943;SDS011;6031;50.220;10.122;2023-05-07T11:53:24;3.03;;;2.80;;
11943;SDS011;6031;50.220;10.122;2023-05-07T11:55:57;3.40;;;3.10;;
11943;SDS011;6031;50.220;10.122;2023-05-07T11:58:23;2.87;;;2.20;;
11943;SDS011;6031;50.220;10.122;2023-05-07T12:00:49;2.90;;;2.70;;
11943;SDS011;6031;50.220;10.122;2023-05-07T12:03:15;3.25;;;2.47;;
11943;SDS011;6031;50.220;10.122;2023-05-07T12:05:41;4.13;;;3.30;;
11943;SDS011;6031;50.220;10.122;2023-05-07T12:08:06;3.38;;;3.08;;
11943;SDS011;6031;50.220;10.122;2023-05-07T12:10:32;3.80;;;2.78;;
11943;SDS011;6031;50.220;10.122;2023-05-07T12:12:58;2.70;;;2.50;;
11943;SDS011;6031;50.220;10.122;2023-05-07T12:15:23;3.28;;;2.97;;
11943;SDS011;6031;50.220;10.122;2023-05-07T12:17:49;2.70;;;2.50;;
11943;SDS011;6031;50.220;10.122;2023-05-07T12:20:15;2.40;;;2.22;;
11943;SDS011;6031;50.220;10.122;2023-05-07T12:22:41;2.88;;;2.60;;
11943;SDS011;6031;50.220;10.122;2023-05-07T12:25:07;7.53;;;3.08;;
11943;SDS011;6031;50.220;10.122;2023-05-07T12:27:36;3.13;;;2.93;;
11943;SDS011;6031;50.220;10.122;2023-05-07T12:30:03;4.87;;;3.67;;
11943;SDS011;6031;50.220;10.122;2023-05-07T12:32:29;3.08;;;2.83;;
11943;SDS011;6031;50.220;10.122;2023-05-07T12:34:54;2.47;;;2.38;;
11943;SDS011;6031;50.220;10.122;2023-05-07T12:37:23;4.15;;;2.70;;
11943;SDS011;6031;50.220;10.122;2023-05-07T12:40:03;3.17;;;2.30;;
11943;SDS011;6031;50.220;10.122;2023-05-07T12:42:32;3.87;;;2.23;;
11943;SDS011;6031;50.220;10.122;2023-05-07T12:45:06;2.70;;;2.50;;
11943;SDS011;6031;50.220;10.122;2023-05-07T12:47:46;2.90;;;2.70;;
11943;SDS011;6031;50.220;10.122;2023-05-07T12:50:13;4.50;;;2.63;;
11943;SDS011;6031;50.220;10.122;2023-05-07T12:52:39;3.23;;;2.93;;
11943;SDS011;6031;50.220;10.122;2023-05-07T12:55:05;3.08;;;2.72;;
11943;SDS011;6031;50.220;10.122;2023-05-07T12:57:38;3.13;;;2.93;;
11943;SDS011;6031;50.220;10.122;2023-05-07T13:00:05;3.03;;;2.83;;
11943;SDS011;6031;50.220;10.122;2023-05-07T13:02:32;2.43;;;2.30;;
11943;SDS011;6031;50.220;10.122;2023-05-07T13:04:59;2.30;;;2.10;;
11943;SDS011;6031;50.220;10.122;2023-05-07T13:07:25;3.10;;;2.53;;
11943;SDS011;6031;50.220;10.122;2023-05-07T13:09:50;2.93;;;2.20;;
11943;SDS011;6031;50.220;10.122;2023-05-07T13:12:16;2.10;;;1.95;;
11943;SDS011;6031;50.220;10.122;2023-05-07T13:14:41;2.88;;;2.58;;
11943;SDS011;6031;50.220;10.122;2023-05-07T13:17:07;2.40;;;2.20;;
11943;SDS011;6031;50.220;10.122;2023-05-07T13:19:32;5.93;;;2.73;;
11943;SDS011;6031;50.220;10.122;2023-05-07T13:21:58;4.28;;;2.65;;
11943;SDS011;6031;50.220;10.122;2023-05-07T13:24:23;2.50;;;2.30;;
11943;SDS011;6031;50.220;10.122;2023-05-07T13:26:49;2.20;;;2.10;;
11943;SDS011;6031;50.220;10.122;2023-05-07T13:29:15;2.95;;;2.33;;
11943;SDS011;6031;50.220;10.122;2023-05-07T13:31:40;2.70;;;2.50;;
11943;SDS011;6031;50.220;10.122;2023-05-07T13:34:08;2.35;;;2.13;;
11943;SDS011;6031;50.220;10.122;2023-05-07T13:36:34;3.33;;;2.80;;
11943;SDS011;6031;50.220;10.122;2023-05-07T13:39:02;3.42;;;3.03;;
11943;SDS011;6031;50.220;10.122;2023-05-07T13:41:28;2.70;;;2.53;;
11943;SDS011;6031;50.220;10.122;2023-05-07T13:43:54;2.38;;;2.00;;
11943;SDS011;6031;50.220;10.122;2023-05-07T13:46:19;2.38;;;2.20;;
11943;SDS011;6031;50.220;10.122;2023-05-07T13:48:45;2.30;;;2.10;;
11943;SDS011;6031;50.220;10.122;2023-05-07T13:51:10;2.72;;;2.38;;
11943;SDS011;6031;50.220;10.122;2023-05-07T13:53:36;2.78;;;2.58;;
11943;SDS011;6031;50.220;10.122;2023-05-07T13:56:02;3.65;;;2.70;;
11943;SDS011;6031;50.220;10.122;2023-05-07T13:58:29;3.28;;;2.45;;
11943;SDS011;6031;50.220;10.122;2023-05-07T14:00:55;2.40;;;2.20;;
11943;SDS011;6031;50.220;10.122;2023-05-07T14:03:20;3.75;;;2.58;;
11943;SDS011;6031;50.220;10.122;2023-05-07T14:05:46;2.65;;;2.45;;
11943;SDS011;6031;50.220;10.122;2023-05-07T14:08:11;2.90;;;2.70;;
11943;SDS011;6031;50.220;10.122;2023-05-07T14:10:38;2.90;;;2.30;;
11943;SDS011;6031;50.220;10.122;2023-05-07T14:13:07;2.72;;;2.53;;
11943;SDS011;6031;50.220;10.122;2023-05-07T14:15:32;3.20;;;2.90;;
11943;SDS011;6031;50.220;10.122;2023-05-07T14:17:58;3.40;;;2.28;;
11943;SDS011;6031;50.220;10.122;2023-05-07T14:20:24;2.88;;;2.67;;
11943;SDS011;6031;50.220;10.122;2023-05-07T14:22:50;3.72;;;2.83;;
11943;SDS011;6031;50.220;10.122;2023-05-07T14:25:15;2.45;;;2.35;;
11943;SDS011;6031;50.220;10.122;2023-05-07T14:27:41;3.08;;;2.88;;
11943;SDS011;6031;50.220;10.122;2023-05-07T14:30:07;2.92;;;2.70;;
11943;SDS011;6031;50.220;10.122;2023-05-07T14:32:33;2.58;;;2.17;;
11943;SDS011;6031;50.220;10.122;2023-05-07T14:34:59;2.70;;;2.50;;
11943;SDS011;6031;50.220;10.122;2023-05-07T14:37:24;2.20;;;2.08;;
11943;SDS011;6031;50.220;10.122;2023-05-07T14:39:50;3.47;;;2.80;;
11943;SDS011;6031;50.220;10.122;2023-05-07T14:42:15;2.53;;;2.33;;
11943;SDS011;6031;50.220;10.122;2023-05-07T14:44:41;2.67;;;2.47;;
11943;SDS011;6031;50.220;10.122;2023-05-07T14:47:07;3.65;;;2.78;;
11943;SDS011;6031;50.220;10.122;2023-05-07T14:49:33;3.03;;;2.40;;
11943;SDS011;6031;50.220;10.122;2023-05-07T14:51:59;2.60;;;2.40;;
11943;SDS011;6031;50.220;10.122;2023-05-07T14:54:25;2.92;;;2.70;;